sensor_id;sensor_type;location;lat;lon;timestamp;temperature;humidity
62853;DHT22;49205;44.868;38.140;2023-04-24T00:01:14;11.00;91.70
62853;DHT22;49205;44.868;38.140;2023-04-24T00:03:44;11.00;91.70
62853;DHT22;49205;44.868;38.140;2023-04-24T00:06:13;10.90;91.60
62853;DHT22;49205;44.868;38.140;2023-04-24T00:08:44;10.90;91.70
62853;DHT22;49205;44.868;38.140;2023-04-24T00:11:13;10.90;91.70
62853;DHT22;49205;44.868;38.140;2023-04-24T00:13:42;10.80;91.70
62853;DHT22;49205;44.868;38.140;2023-04-24T00:16:11;10.70;91.80
62853;DHT22;49205;44.868;38.140;2023-04-24T00:18:40;10.70;91.80
62853;DHT22;49205;44.868;38.140;2023-04-24T00:21:10;10.70;91.80
62853;DHT22;49205;44.868;38.140;2023-04-24T00:23:39;10.70;91.90
62853;DHT22;49205;44.868;38.140;2023-04-24T00:26:08;10.60;91.80
62853;DHT22;49205;44.868;38.140;2023-04-24T00:28:37;10.60;91.90
62853;DHT22;49205;44.868;38.140;2023-04-24T00:31:07;10.60;91.90
62853;DHT22;49205;44.868;38.140;2023-04-24T00:33:36;10.50;92.00
62853;DHT22;49205;44.868;38.140;2023-04-24T00:36:05;10.60;92.00
62853;DHT22;49205;44.868;38.140;2023-04-24T00:38:35;10.60;92.20
62853;DHT22;49205;44.868;38.140;2023-04-24T00:41:04;10.70;92.20
62853;DHT22;49205;44.868;38.140;2023-04-24T00:43:34;10.70;92.10
62853;DHT22;49205;44.868;38.140;2023-04-24T00:46:04;10.70;92.10
62853;DHT22;49205;44.868;38.140;2023-04-24T00:48:33;10.70;92.10
62853;DHT22;49205;44.868;38.140;2023-04-24T00:51:03;10.80;92.10
62853;DHT22;49205;44.868;38.140;2023-04-24T00:53:32;10.80;92.10
62853;DHT22;49205;44.868;38.140;2023-04-24T00:56:02;10.80;92.00
62853;DHT22;49205;44.868;38.140;2023-04-24T00:58:31;10.80;91.80
62853;DHT22;49205;44.868;38.140;2023-04-24T01:01:00;10.60;91.80
62853;DHT22;49205;44.868;38.140;2023-04-24T01:03:30;10.60;92.00
62853;DHT22;49205;44.868;38.140;2023-04-24T01:06:00;10.60;92.10
62853;DHT22;49205;44.868;38.140;2023-04-24T01:08:29;10.60;92.20
62853;DHT22;49205;44.868;38.140;2023-04-24T01:10:58;10.60;92.10
62853;DHT22;49205;44.868;38.140;2023-04-24T01:13:28;10.60;92.00
62853;DHT22;49205;44.868;38.140;2023-04-24T01:15:58;10.60;92.10
62853;DHT22;49205;44.868;38.140;2023-04-24T01:18:28;10.60;92.10
62853;DHT22;49205;44.868;38.140;2023-04-24T01:20:59;10.60;92.10
62853;DHT22;49205;44.868;38.140;2023-04-24T01:23:28;10.50;92.10
62853;DHT22;49205;44.868;38.140;2023-04-24T01:25:57;10.60;92.10
62853;DHT22;49205;44.868;38.140;2023-04-24T01:28:27;10.60;92.10
62853;DHT22;49205;44.868;38.140;2023-04-24T01:30:56;10.60;92.10
62853;DHT22;49205;44.868;38.140;2023-04-24T01:33:26;10.50;92.00
62853;DHT22;49205;44.868;38.140;2023-04-24T01:35:55;10.50;92.10
62853;DHT22;49205;44.868;38.140;2023-04-24T01:38:24;10.50;92.10
62853;DHT22;49205;44.868;38.140;2023-04-24T01:40:53;10.50;92.20
62853;DHT22;49205;44.868;38.140;2023-04-24T01:43:22;10.50;92.20
62853;DHT22;49205;44.868;38.140;2023-04-24T01:45:52;10.50;92.10
62853;DHT22;49205;44.868;38.140;2023-04-24T01:48:22;10.40;92.00
62853;DHT22;49205;44.868;38.140;2023-04-24T01:50:51;10.30;92.00
62853;DHT22;49205;44.868;38.140;2023-04-24T01:53:20;10.30;91.90
62853;DHT22;49205;44.868;38.140;2023-04-24T01:55:49;10.20;92.10
62853;DHT22;49205;44.868;38.140;2023-04-24T01:58:18;10.20;92.20
62853;DHT22;49205;44.868;38.140;2023-04-24T02:00:47;10.20;92.30
62853;DHT22;49205;44.868;38.140;2023-04-24T02:03:16;10.20;92.40
62853;DHT22;49205;44.868;38.140;2023-04-24T02:05:45;10.20;92.40
62853;DHT22;49205;44.868;38.140;2023-04-24T02:08:14;10.30;92.30
62853;DHT22;49205;44.868;38.140;2023-04-24T02:10:43;10.30;92.20
62853;DHT22;49205;44.868;38.140;2023-04-24T02:13:12;10.20;92.20
62853;DHT22;49205;44.868;38.140;2023-04-24T02:15:43;10.30;92.30
62853;DHT22;49205;44.868;38.140;2023-04-24T02:18:12;10.20;92.20
62853;DHT22;49205;44.868;38.140;2023-04-24T02:20:41;10.30;92.30
62853;DHT22;49205;44.868;38.140;2023-04-24T02:23:10;10.30;92.20
62853;DHT22;49205;44.868;38.140;2023-04-24T02:25:41;10.30;92.20
62853;DHT22;49205;44.868;38.140;2023-04-24T02:28:10;10.30;92.20
62853;DHT22;49205;44.868;38.140;2023-04-24T02:30:39;10.30;92.20
62853;DHT22;49205;44.868;38.140;2023-04-24T02:33:09;10.30;92.30
62853;DHT22;49205;44.868;38.140;2023-04-24T02:35:38;10.20;92.30
62853;DHT22;49205;44.868;38.140;2023-04-24T02:38:07;10.30;92.40
62853;DHT22;49205;44.868;38.140;2023-04-24T02:40:36;10.30;92.40
62853;DHT22;49205;44.868;38.140;2023-04-24T02:43:05;10.30;92.30
62853;DHT22;49205;44.868;38.140;2023-04-24T02:45:35;10.30;92.30
62853;DHT22;49205;44.868;38.140;2023-04-24T02:48:05;10.30;92.30
62853;DHT22;49205;44.868;38.140;2023-04-24T02:50:34;10.30;92.30
62853;DHT22;49205;44.868;38.140;2023-04-24T02:53:04;10.30;92.40
62853;DHT22;49205;44.868;38.140;2023-04-24T02:55:33;10.30;92.50
62853;DHT22;49205;44.868;38.140;2023-04-24T02:58:02;10.40;92.50
62853;DHT22;49205;44.868;38.140;2023-04-24T03:00:32;10.40;92.60
62853;DHT22;49205;44.868;38.140;2023-04-24T03:03:01;10.50;92.60
62853;DHT22;49205;44.868;38.140;2023-04-24T03:05:30;10.60;92.50
62853;DHT22;49205;44.868;38.140;2023-04-24T03:07:59;10.60;92.40
62853;DHT22;49205;44.868;38.140;2023-04-24T03:10:28;10.60;92.40
62853;DHT22;49205;44.868;38.140;2023-04-24T03:12:57;10.60;92.40
62853;DHT22;49205;44.868;38.140;2023-04-24T03:15:27;10.60;92.40
62853;DHT22;49205;44.868;38.140;2023-04-24T03:17:56;10.60;92.40
62853;DHT22;49205;44.868;38.140;2023-04-24T03:20:26;10.60;92.50
62853;DHT22;49205;44.868;38.140;2023-04-24T03:22:55;10.60;92.60
62853;DHT22;49205;44.868;38.140;2023-04-24T03:25:25;10.60;92.60
62853;DHT22;49205;44.868;38.140;2023-04-24T03:27:56;10.60;92.70
62853;DHT22;49205;44.868;38.140;2023-04-24T03:30:26;10.60;92.70
62853;DHT22;49205;44.868;38.140;2023-04-24T03:32:57;10.60;92.60
62853;DHT22;49205;44.868;38.140;2023-04-24T03:35:27;10.70;92.60
62853;DHT22;49205;44.868;38.140;2023-04-24T03:37:57;10.70;92.60
62853;DHT22;49205;44.868;38.140;2023-04-24T03:40:44;10.70;92.70
62853;DHT22;49205;44.868;38.140;2023-04-24T03:43:17;10.70;92.60
62853;DHT22;49205;44.868;38.140;2023-04-24T03:45:47;10.70;92.60
62853;DHT22;49205;44.868;38.140;2023-04-24T03:48:17;10.70;92.70
62853;DHT22;49205;44.868;38.140;2023-04-24T03:50:46;10.70;92.80
62853;DHT22;49205;44.868;38.140;2023-04-24T03:53:16;10.60;92.70
62853;DHT22;49205;44.868;38.140;2023-04-24T03:55:45;10.60;92.90
62853;DHT22;49205;44.868;38.140;2023-04-24T03:58:15;10.60;93.10
62853;DHT22;49205;44.868;38.140;2023-04-24T04:00:45;10.50;93.00
62853;DHT22;49205;44.868;38.140;2023-04-24T04:03:19;10.50;93.20
62853;DHT22;49205;44.868;38.140;2023-04-24T04:05:49;10.50;93.20
62853;DHT22;49205;44.868;38.140;2023-04-24T04:08:19;10.40;93.20
62853;DHT22;49205;44.868;38.140;2023-04-24T04:10:49;10.40;93.20
62853;DHT22;49205;44.868;38.140;2023-04-24T04:13:18;10.40;93.40
62853;DHT22;49205;44.868;38.140;2023-04-24T04:15:47;10.40;93.30
62853;DHT22;49205;44.868;38.140;2023-04-24T04:18:17;10.40;93.50
62853;DHT22;49205;44.868;38.140;2023-04-24T04:20:46;10.40;93.50
62853;DHT22;49205;44.868;38.140;2023-04-24T04:23:17;10.40;93.30
62853;DHT22;49205;44.868;38.140;2023-04-24T04:25:48;10.40;93.70
62853;DHT22;49205;44.868;38.140;2023-04-24T04:28:19;10.40;93.40
62853;DHT22;49205;44.868;38.140;2023-04-24T04:30:49;10.40;93.50
62853;DHT22;49205;44.868;38.140;2023-04-24T04:33:21;10.50;93.40
62853;DHT22;49205;44.868;38.140;2023-04-24T04:35:50;10.40;93.40
62853;DHT22;49205;44.868;38.140;2023-04-24T04:38:23;10.40;93.40
62853;DHT22;49205;44.868;38.140;2023-04-24T04:40:56;10.40;93.70
62853;DHT22;49205;44.868;38.140;2023-04-24T04:43:27;10.40;93.60
62853;DHT22;49205;44.868;38.140;2023-04-24T04:45:57;10.40;93.70
62853;DHT22;49205;44.868;38.140;2023-04-24T04:48:30;10.40;93.80
62853;DHT22;49205;44.868;38.140;2023-04-24T04:51:01;10.40;93.80
62853;DHT22;49205;44.868;38.140;2023-04-24T04:53:30;10.50;93.80
62853;DHT22;49205;44.868;38.140;2023-04-24T04:55:59;10.50;93.80
62853;DHT22;49205;44.868;38.140;2023-04-24T04:58:30;10.50;93.50
62853;DHT22;49205;44.868;38.140;2023-04-24T05:01:00;10.60;93.60
62853;DHT22;49205;44.868;38.140;2023-04-24T05:03:30;10.60;93.70
62853;DHT22;49205;44.868;38.140;2023-04-24T05:06:04;10.60;93.80
62853;DHT22;49205;44.868;38.140;2023-04-24T05:08:35;10.70;93.50
62853;DHT22;49205;44.868;38.140;2023-04-24T05:11:05;10.70;93.60
62853;DHT22;49205;44.868;38.140;2023-04-24T05:13:35;10.70;93.60
62853;DHT22;49205;44.868;38.140;2023-04-24T05:16:06;10.80;93.50
62853;DHT22;49205;44.868;38.140;2023-04-24T05:18:35;10.80;93.40
62853;DHT22;49205;44.868;38.140;2023-04-24T05:21:05;10.90;93.40
62853;DHT22;49205;44.868;38.140;2023-04-24T05:23:36;10.90;93.30
62853;DHT22;49205;44.868;38.140;2023-04-24T05:26:05;10.90;93.20
62853;DHT22;49205;44.868;38.140;2023-04-24T05:28:35;10.90;93.20
62853;DHT22;49205;44.868;38.140;2023-04-24T05:31:05;11.00;93.10
62853;DHT22;49205;44.868;38.140;2023-04-24T05:33:35;11.00;93.00
62853;DHT22;49205;44.868;38.140;2023-04-24T05:36:06;11.00;93.10
62853;DHT22;49205;44.868;38.140;2023-04-24T05:38:35;11.00;93.30
62853;DHT22;49205;44.868;38.140;2023-04-24T05:41:05;11.00;93.30
62853;DHT22;49205;44.868;38.140;2023-04-24T05:43:34;11.00;93.00
62853;DHT22;49205;44.868;38.140;2023-04-24T05:46:04;11.00;93.40
62853;DHT22;49205;44.868;38.140;2023-04-24T05:48:33;11.00;93.40
62853;DHT22;49205;44.868;38.140;2023-04-24T05:51:04;11.00;93.30
62853;DHT22;49205;44.868;38.140;2023-04-24T05:53:33;11.10;93.30
62853;DHT22;49205;44.868;38.140;2023-04-24T05:56:02;11.10;93.30
62853;DHT22;49205;44.868;38.140;2023-04-24T05:58:32;11.10;93.30
62853;DHT22;49205;44.868;38.140;2023-04-24T06:01:01;11.20;93.30
62853;DHT22;49205;44.868;38.140;2023-04-24T06:03:31;11.20;93.20
62853;DHT22;49205;44.868;38.140;2023-04-24T06:06:00;11.30;93.30
62853;DHT22;49205;44.868;38.140;2023-04-24T06:08:29;11.30;93.40
62853;DHT22;49205;44.868;38.140;2023-04-24T06:10:59;11.30;93.30
62853;DHT22;49205;44.868;38.140;2023-04-24T06:13:28;11.30;93.30
62853;DHT22;49205;44.868;38.140;2023-04-24T06:16:05;11.40;93.40
62853;DHT22;49205;44.868;38.140;2023-04-24T06:18:35;11.40;93.40
62853;DHT22;49205;44.868;38.140;2023-04-24T06:21:05;11.40;93.40
62853;DHT22;49205;44.868;38.140;2023-04-24T06:23:34;11.50;93.40
62853;DHT22;49205;44.868;38.140;2023-04-24T06:26:03;11.60;93.50
62853;DHT22;49205;44.868;38.140;2023-04-24T06:28:33;11.70;93.50
62853;DHT22;49205;44.868;38.140;2023-04-24T06:31:02;11.80;93.50
62853;DHT22;49205;44.868;38.140;2023-04-24T06:33:33;11.90;93.40
62853;DHT22;49205;44.868;38.140;2023-04-24T06:36:02;11.90;93.30
62853;DHT22;49205;44.868;38.140;2023-04-24T06:38:32;11.90;93.40
62853;DHT22;49205;44.868;38.140;2023-04-24T06:41:01;12.00;93.30
62853;DHT22;49205;44.868;38.140;2023-04-24T06:43:32;12.00;93.30
62853;DHT22;49205;44.868;38.140;2023-04-24T06:46:01;12.00;93.20
62853;DHT22;49205;44.868;38.140;2023-04-24T06:48:31;12.00;93.10
62853;DHT22;49205;44.868;38.140;2023-04-24T06:51:00;12.00;93.10
62853;DHT22;49205;44.868;38.140;2023-04-24T06:53:29;12.00;93.00
62853;DHT22;49205;44.868;38.140;2023-04-24T06:55:58;11.90;93.30
62853;DHT22;49205;44.868;38.140;2023-04-24T06:58:27;11.90;93.30
62853;DHT22;49205;44.868;38.140;2023-04-24T07:00:56;11.90;93.30
62853;DHT22;49205;44.868;38.140;2023-04-24T07:03:25;11.80;93.50
62853;DHT22;49205;44.868;38.140;2023-04-24T07:05:55;11.80;93.50
62853;DHT22;49205;44.868;38.140;2023-04-24T07:08:25;11.80;93.50
62853;DHT22;49205;44.868;38.140;2023-04-24T07:10:54;11.80;93.70
62853;DHT22;49205;44.868;38.140;2023-04-24T07:13:24;11.90;93.80
62853;DHT22;49205;44.868;38.140;2023-04-24T07:15:54;11.90;93.80
62853;DHT22;49205;44.868;38.140;2023-04-24T07:18:24;12.00;93.80
62853;DHT22;49205;44.868;38.140;2023-04-24T07:20:52;12.00;93.80
62853;DHT22;49205;44.868;38.140;2023-04-24T07:23:21;12.00;93.90
62853;DHT22;49205;44.868;38.140;2023-04-24T07:25:51;12.10;94.30
62853;DHT22;49205;44.868;38.140;2023-04-24T07:28:20;12.20;94.20
62853;DHT22;49205;44.868;38.140;2023-04-24T07:30:49;12.20;94.10
62853;DHT22;49205;44.868;38.140;2023-04-24T07:33:18;12.30;93.70
62853;DHT22;49205;44.868;38.140;2023-04-24T07:35:47;12.30;93.60
62853;DHT22;49205;44.868;38.140;2023-04-24T07:38:17;12.40;93.50
62853;DHT22;49205;44.868;38.140;2023-04-24T07:40:48;12.40;93.50
62853;DHT22;49205;44.868;38.140;2023-04-24T07:43:17;12.40;93.50
62853;DHT22;49205;44.868;38.140;2023-04-24T07:45:47;12.50;93.50
62853;DHT22;49205;44.868;38.140;2023-04-24T07:48:16;12.50;93.50
62853;DHT22;49205;44.868;38.140;2023-04-24T07:50:45;12.50;93.30
62853;DHT22;49205;44.868;38.140;2023-04-24T07:53:15;12.50;93.30
62853;DHT22;49205;44.868;38.140;2023-04-24T07:55:44;12.50;93.30
62853;DHT22;49205;44.868;38.140;2023-04-24T07:58:13;12.50;93.30
62853;DHT22;49205;44.868;38.140;2023-04-24T08:00:42;12.50;93.30
62853;DHT22;49205;44.868;38.140;2023-04-24T08:03:11;12.60;93.30
62853;DHT22;49205;44.868;38.140;2023-04-24T08:05:41;12.60;93.20
62853;DHT22;49205;44.868;38.140;2023-04-24T08:08:10;12.60;93.20
62853;DHT22;49205;44.868;38.140;2023-04-24T08:10:39;12.70;93.30
62853;DHT22;49205;44.868;38.140;2023-04-24T08:13:09;12.80;93.30
62853;DHT22;49205;44.868;38.140;2023-04-24T08:15:39;12.80;93.20
62853;DHT22;49205;44.868;38.140;2023-04-24T08:18:08;12.90;93.30
62853;DHT22;49205;44.868;38.140;2023-04-24T08:20:39;12.90;93.20
62853;DHT22;49205;44.868;38.140;2023-04-24T08:23:08;12.90;93.20
62853;DHT22;49205;44.868;38.140;2023-04-24T08:25:37;12.90;93.20
